sensor_id;sensor_type;location;lat;lon;timestamp;pressure;altitude;pressure_sealevel;temperature;humidity
53246;BME280;39569;51.090;-1.786;2023-04-16T00:00:37;101887.94;;;17.51;45.93
53246;BME280;39569;51.090;-1.786;2023-04-16T00:03:04;101892.75;;;17.56;45.77
53246;BME280;39569;51.090;-1.786;2023-04-16T00:05:31;101888.25;;;17.63;45.49
53246;BME280;39569;51.090;-1.786;2023-04-16T00:07:58;101887.41;;;17.62;45.56
53246;BME280;39569;51.090;-1.786;2023-04-16T00:10:26;101887.69;;;17.67;45.37
53246;BME280;39569;51.090;-1.786;2023-04-16T00:12:53;101884.56;;;17.64;45.48
53246;BME280;39569;51.090;-1.786;2023-04-16T00:15:20;101881.06;;;17.49;45.92
53246;BME280;39569;51.090;-1.786;2023-04-16T00:17:47;101883.97;;;17.47;45.78
53246;BME280;39569;51.090;-1.786;2023-04-16T00:20:13;101881.13;;;17.41;46.03
53246;BME280;39569;51.090;-1.786;2023-04-16T00:22:40;101885.78;;;17.47;46.02
53246;BME280;39569;51.090;-1.786;2023-04-16T00:25:07;101886.53;;;17.55;45.83
53246;BME280;39569;51.090;-1.786;2023-04-16T00:27:36;101885.00;;;17.67;45.90
53246;BME280;39569;51.090;-1.786;2023-04-16T00:30:03;101888.25;;;17.63;45.95
53246;BME280;39569;51.090;-1.786;2023-04-16T00:32:30;101881.00;;;17.63;45.63
53246;BME280;39569;51.090;-1.786;2023-04-16T00:34:57;101880.09;;;17.56;46.08
53246;BME280;39569;51.090;-1.786;2023-04-16T00:37:23;101884.91;;;17.61;46.30
53246;BME280;39569;51.090;-1.786;2023-04-16T00:39:50;101879.97;;;17.64;46.15
53246;BME280;39569;51.090;-1.786;2023-04-16T00:42:17;101884.59;;;17.71;45.86
53246;BME280;39569;51.090;-1.786;2023-04-16T00:44:45;101885.13;;;17.81;45.69
53246;BME280;39569;51.090;-1.786;2023-04-16T00:47:12;101880.56;;;17.60;46.20
53246;BME280;39569;51.090;-1.786;2023-04-16T00:49:38;101880.56;;;17.60;46.02
53246;BME280;39569;51.090;-1.786;2023-04-16T00:52:05;101881.50;;;17.74;45.91
53246;BME280;39569;51.090;-1.786;2023-04-16T00:54:32;101886.41;;;17.85;45.62
53246;BME280;39569;51.090;-1.786;2023-04-16T00:56:59;101883.78;;;17.91;45.35
53246;BME280;39569;51.090;-1.786;2023-04-16T00:59:27;101887.31;;;17.71;45.62
53246;BME280;39569;51.090;-1.786;2023-04-16T01:01:55;101887.44;;;17.84;45.35
53246;BME280;39569;51.090;-1.786;2023-04-16T01:04:22;101884.84;;;17.76;45.42
53246;BME280;39569;51.090;-1.786;2023-04-16T01:06:49;101890.22;;;17.69;45.84
53246;BME280;39569;51.090;-1.786;2023-04-16T01:09:16;101879.78;;;17.66;45.99
53246;BME280;39569;51.090;-1.786;2023-04-16T01:11:43;101877.19;;;17.79;45.55
53246;BME280;39569;51.090;-1.786;2023-04-16T01:14:10;101879.19;;;17.71;45.59
53246;BME280;39569;51.090;-1.786;2023-04-16T01:16:37;101883.84;;;17.77;45.46
53246;BME280;39569;51.090;-1.786;2023-04-16T01:19:05;101877.53;;;17.70;45.62
53246;BME280;39569;51.090;-1.786;2023-04-16T01:21:33;101878.19;;;17.72;45.77
53246;BME280;39569;51.090;-1.786;2023-04-16T01:24:01;101875.97;;;17.82;45.70
53246;BME280;39569;51.090;-1.786;2023-04-16T01:26:28;101876.81;;;17.82;45.32
53246;BME280;39569;51.090;-1.786;2023-04-16T01:28:55;101875.34;;;17.80;45.46
53246;BME280;39569;51.090;-1.786;2023-04-16T01:31:22;101875.13;;;17.81;45.63
53246;BME280;39569;51.090;-1.786;2023-04-16T01:33:49;101878.16;;;17.50;45.89
53246;BME280;39569;51.090;-1.786;2023-04-16T01:36:15;101871.34;;;17.54;45.97
53246;BME280;39569;51.090;-1.786;2023-04-16T01:38:44;101875.16;;;17.45;46.15
53246;BME280;39569;51.090;-1.786;2023-04-16T01:41:10;101873.88;;;17.41;46.12
53246;BME280;39569;51.090;-1.786;2023-04-16T01:43:37;101877.13;;;17.37;46.40
53246;BME280;39569;51.090;-1.786;2023-04-16T01:46:14;101875.34;;;17.44;46.32
53246;BME280;39569;51.090;-1.786;2023-04-16T01:48:43;101874.22;;;17.38;46.49
53246;BME280;39569;51.090;-1.786;2023-04-16T01:51:10;101871.03;;;17.28;46.63
53246;BME280;39569;51.090;-1.786;2023-04-16T01:53:37;101866.72;;;17.48;46.36
53246;BME280;39569;51.090;-1.786;2023-04-16T01:56:05;101863.63;;;17.51;46.63
53246;BME280;39569;51.090;-1.786;2023-04-16T01:58:32;101867.06;;;17.45;46.57
53246;BME280;39569;51.090;-1.786;2023-04-16T02:00:59;101872.47;;;17.45;46.56
53246;BME280;39569;51.090;-1.786;2023-04-16T02:03:26;101873.47;;;17.44;46.80
53246;BME280;39569;51.090;-1.786;2023-04-16T02:05:53;101862.84;;;17.57;46.60
53246;BME280;39569;51.090;-1.786;2023-04-16T02:08:20;101869.09;;;17.58;46.24
53246;BME280;39569;51.090;-1.786;2023-04-16T02:10:46;101866.97;;;17.39;47.02
53246;BME280;39569;51.090;-1.786;2023-04-16T02:13:15;101858.03;;;17.53;46.42
53246;BME280;39569;51.090;-1.786;2023-04-16T02:15:44;101852.06;;;17.43;46.50
53246;BME280;39569;51.090;-1.786;2023-04-16T02:18:11;101863.06;;;17.56;46.35
53246;BME280;39569;51.090;-1.786;2023-04-16T02:20:39;101864.00;;;17.48;46.19
53246;BME280;39569;51.090;-1.786;2023-04-16T02:23:06;101866.19;;;17.24;46.66
53246;BME280;39569;51.090;-1.786;2023-04-16T02:25:37;101863.13;;;17.27;46.69
53246;BME280;39569;51.090;-1.786;2023-04-16T02:28:05;101865.72;;;17.20;46.85
53246;BME280;39569;51.090;-1.786;2023-04-16T02:30:33;101863.59;;;17.16;46.89
53246;BME280;39569;51.090;-1.786;2023-04-16T02:33:00;101862.31;;;17.12;47.09
53246;BME280;39569;51.090;-1.786;2023-04-16T02:35:30;101863.16;;;16.98;47.29
53246;BME280;39569;51.090;-1.786;2023-04-16T02:37:56;101858.25;;;17.01;47.18
53246;BME280;39569;51.090;-1.786;2023-04-16T02:40:23;101862.81;;;16.86;47.35
53246;BME280;39569;51.090;-1.786;2023-04-16T02:42:50;101866.78;;;16.90;47.30
53246;BME280;39569;51.090;-1.786;2023-04-16T02:45:17;101855.44;;;16.95;47.15
53246;BME280;39569;51.090;-1.786;2023-04-16T02:47:45;101861.94;;;17.00;47.28
53246;BME280;39569;51.090;-1.786;2023-04-16T02:50:12;101858.97;;;16.95;47.14
53246;BME280;39569;51.090;-1.786;2023-04-16T02:52:39;101855.69;;;17.00;47.17
53246;BME280;39569;51.090;-1.786;2023-04-16T02:55:07;101858.84;;;17.03;46.98
53246;BME280;39569;51.090;-1.786;2023-04-16T02:57:34;101859.22;;;17.15;46.87
53246;BME280;39569;51.090;-1.786;2023-04-16T03:00:00;101853.09;;;17.06;46.97
53246;BME280;39569;51.090;-1.786;2023-04-16T03:02:28;101852.91;;;17.08;46.94
53246;BME280;39569;51.090;-1.786;2023-04-16T03:04:57;101856.78;;;17.20;46.84
53246;BME280;39569;51.090;-1.786;2023-04-16T03:07:23;101855.56;;;17.22;46.80
53246;BME280;39569;51.090;-1.786;2023-04-16T03:09:50;101855.00;;;17.27;46.79
53246;BME280;39569;51.090;-1.786;2023-04-16T03:12:17;101852.97;;;17.14;47.04
53246;BME280;39569;51.090;-1.786;2023-04-16T03:14:44;101855.22;;;17.11;47.19
53246;BME280;39569;51.090;-1.786;2023-04-16T03:17:10;101854.84;;;17.14;46.95
53246;BME280;39569;51.090;-1.786;2023-04-16T03:19:37;101854.13;;;17.41;46.55
53246;BME280;39569;51.090;-1.786;2023-04-16T03:22:05;101845.97;;;17.34;46.49
53246;BME280;39569;51.090;-1.786;2023-04-16T03:24:32;101843.31;;;17.41;46.37
53246;BME280;39569;51.090;-1.786;2023-04-16T03:26:59;101849.81;;;17.11;46.87
53246;BME280;39569;51.090;-1.786;2023-04-16T03:29:26;101850.47;;;17.13;47.14
53246;BME280;39569;51.090;-1.786;2023-04-16T03:31:53;101846.72;;;17.28;46.47
53246;BME280;39569;51.090;-1.786;2023-04-16T03:34:19;101845.34;;;17.18;47.03
53246;BME280;39569;51.090;-1.786;2023-04-16T03:36:46;101849.91;;;17.17;47.07
53246;BME280;39569;51.090;-1.786;2023-04-16T03:39:14;101851.06;;;17.29;47.06
53246;BME280;39569;51.090;-1.786;2023-04-16T03:41:41;101854.72;;;17.36;46.80
53246;BME280;39569;51.090;-1.786;2023-04-16T03:44:08;101856.47;;;17.29;47.06
53246;BME280;39569;51.090;-1.786;2023-04-16T03:46:35;101853.28;;;17.40;46.54
53246;BME280;39569;51.090;-1.786;2023-04-16T03:49:01;101848.78;;;17.26;47.07
53246;BME280;39569;51.090;-1.786;2023-04-16T03:51:28;101859.63;;;17.33;46.78
53246;BME280;39569;51.090;-1.786;2023-04-16T03:53:55;101846.66;;;17.43;46.79
53246;BME280;39569;51.090;-1.786;2023-04-16T03:56:23;101846.19;;;17.54;46.41
53246;BME280;39569;51.090;-1.786;2023-04-16T03:58:50;101840.03;;;17.24;46.70
53246;BME280;39569;51.090;-1.786;2023-04-16T04:01:16;101847.47;;;17.22;46.82
53246;BME280;39569;51.090;-1.786;2023-04-16T04:03:43;101853.53;;;17.24;46.78
53246;BME280;39569;51.090;-1.786;2023-04-16T04:06:10;101852.88;;;17.22;46.70
53246;BME280;39569;51.090;-1.786;2023-04-16T04:08:37;101853.72;;;17.23;46.68
53246;BME280;39569;51.090;-1.786;2023-04-16T04:11:04;101859.03;;;17.16;46.88
53246;BME280;39569;51.090;-1.786;2023-04-16T04:13:32;101854.78;;;17.43;46.13
53246;BME280;39569;51.090;-1.786;2023-04-16T04:15:59;101854.16;;;17.26;46.29
53246;BME280;39569;51.090;-1.786;2023-04-16T04:18:25;101854.22;;;17.12;46.67
53246;BME280;39569;51.090;-1.786;2023-04-16T04:20:52;101854.28;;;17.18;46.94
53246;BME280;39569;51.090;-1.786;2023-04-16T04:23:19;101860.91;;;17.16;46.74
53246;BME280;39569;51.090;-1.786;2023-04-16T04:25:46;101851.56;;;17.18;46.56
53246;BME280;39569;51.090;-1.786;2023-04-16T04:28:12;101849.66;;;17.12;46.96
53246;BME280;39569;51.090;-1.786;2023-04-16T04:30:41;101844.50;;;17.17;46.97
53246;BME280;39569;51.090;-1.786;2023-04-16T04:33:08;101847.03;;;17.19;46.83
53246;BME280;39569;51.090;-1.786;2023-04-16T04:35:34;101840.78;;;17.18;46.94
53246;BME280;39569;51.090;-1.786;2023-04-16T04:38:02;101847.31;;;17.09;47.17
53246;BME280;39569;51.090;-1.786;2023-04-16T04:40:28;101849.38;;;17.07;47.16
53246;BME280;39569;51.090;-1.786;2023-04-16T04:42:55;101845.66;;;17.08;47.12
53246;BME280;39569;51.090;-1.786;2023-04-16T04:45:22;101849.09;;;17.02;47.25
53246;BME280;39569;51.090;-1.786;2023-04-16T04:47:51;101848.66;;;16.99;47.54
53246;BME280;39569;51.090;-1.786;2023-04-16T04:50:18;101850.22;;;16.93;47.49
53246;BME280;39569;51.090;-1.786;2023-04-16T04:52:45;101853.84;;;17.00;47.48
53246;BME280;39569;51.090;-1.786;2023-04-16T04:55:11;101855.34;;;17.03;47.36
53246;BME280;39569;51.090;-1.786;2023-04-16T04:57:40;101854.41;;;17.10;47.11
53246;BME280;39569;51.090;-1.786;2023-04-16T05:00:07;101866.66;;;17.13;47.20
53246;BME280;39569;51.090;-1.786;2023-04-16T05:02:34;101861.66;;;17.10;47.40
53246;BME280;39569;51.090;-1.786;2023-04-16T05:05:03;101859.41;;;17.13;47.45
53246;BME280;39569;51.090;-1.786;2023-04-16T05:07:30;101861.56;;;17.03;47.48
53246;BME280;39569;51.090;-1.786;2023-04-16T05:09:57;101859.50;;;17.05;47.58
53246;BME280;39569;51.090;-1.786;2023-04-16T05:12:23;101860.44;;;17.12;47.50
53246;BME280;39569;51.090;-1.786;2023-04-16T05:14:50;101860.91;;;17.16;47.53
53246;BME280;39569;51.090;-1.786;2023-04-16T05:17:17;101865.50;;;17.01;47.88
53246;BME280;39569;51.090;-1.786;2023-04-16T05:19:44;101872.88;;;17.28;47.17
53246;BME280;39569;51.090;-1.786;2023-04-16T05:22:12;101874.72;;;17.27;47.47
53246;BME280;39569;51.090;-1.786;2023-04-16T05:24:39;101874.09;;;17.25;47.26
53246;BME280;39569;51.090;-1.786;2023-04-16T05:27:05;101873.63;;;17.22;47.28
53246;BME280;39569;51.090;-1.786;2023-04-16T05:29:32;101869.47;;;17.19;47.52
53246;BME280;39569;51.090;-1.786;2023-04-16T05:31:59;101870.72;;;17.38;46.86
53246;BME280;39569;51.090;-1.786;2023-04-16T05:34:26;101867.03;;;17.24;47.50
53246;BME280;39569;51.090;-1.786;2023-04-16T05:36:52;101865.16;;;17.25;47.41
53246;BME280;39569;51.090;-1.786;2023-04-16T05:39:21;101870.59;;;17.46;47.27
53246;BME280;39569;51.090;-1.786;2023-04-16T05:41:47;101869.91;;;17.23;47.31
53246;BME280;39569;51.090;-1.786;2023-04-16T05:44:14;101863.38;;;17.32;47.29
53246;BME280;39569;51.090;-1.786;2023-04-16T05:46:41;101862.97;;;17.49;47.21
53246;BME280;39569;51.090;-1.786;2023-04-16T05:49:07;101863.53;;;17.45;47.06
53246;BME280;39569;51.090;-1.786;2023-04-16T05:51:34;101867.38;;;17.36;47.38
53246;BME280;39569;51.090;-1.786;2023-04-16T05:54:01;101868.22;;;17.36;47.43
53246;BME280;39569;51.090;-1.786;2023-04-16T05:56:29;101874.44;;;17.37;47.46
53246;BME280;39569;51.090;-1.786;2023-04-16T05:58:56;101870.47;;;17.18;47.79
53246;BME280;39569;51.090;-1.786;2023-04-16T06:01:24;101873.56;;;17.15;47.85
53246;BME280;39569;51.090;-1.786;2023-04-16T06:03:50;101873.41;;;16.88;48.43
53246;BME280;39569;51.090;-1.786;2023-04-16T06:06:17;101865.63;;;17.28;47.61
53246;BME280;39569;51.090;-1.786;2023-04-16T06:08:44;101869.81;;;17.31;47.68
53246;BME280;39569;51.090;-1.786;2023-04-16T06:11:11;101876.31;;;17.36;47.61
53246;BME280;39569;51.090;-1.786;2023-04-16T06:13:39;101875.28;;;17.37;47.75
53246;BME280;39569;51.090;-1.786;2023-04-16T06:16:06;101875.41;;;17.65;47.26
53246;BME280;39569;51.090;-1.786;2023-04-16T06:18:33;101880.88;;;17.36;47.51
53246;BME280;39569;51.090;-1.786;2023-04-16T06:21:00;101870.91;;;17.36;47.76
53246;BME280;39569;51.090;-1.786;2023-04-16T06:23:27;101868.28;;;17.43;47.25
53246;BME280;39569;51.090;-1.786;2023-04-16T06:25:53;101876.69;;;17.33;47.50
53246;BME280;39569;51.090;-1.786;2023-04-16T06:28:20;101875.06;;;17.53;47.39
53246;BME280;39569;51.090;-1.786;2023-04-16T06:30:49;101872.03;;;17.42;47.51
53246;BME280;39569;51.090;-1.786;2023-04-16T06:33:15;101885.06;;;17.53;47.39
53246;BME280;39569;51.090;-1.786;2023-04-16T06:35:42;101886.09;;;17.37;47.33
53246;BME280;39569;51.090;-1.786;2023-04-16T06:38:09;101894.03;;;17.24;48.38
53246;BME280;39569;51.090;-1.786;2023-04-16T06:40:36;101885.94;;;17.24;48.10
53246;BME280;39569;51.090;-1.786;2023-04-16T06:43:03;101890.78;;;17.64;47.55
53246;BME280;39569;51.090;-1.786;2023-04-16T06:45:29;101896.41;;;17.84;47.32
53246;BME280;39569;51.090;-1.786;2023-04-16T06:47:58;101900.50;;;18.01;46.66
53246;BME280;39569;51.090;-1.786;2023-04-16T06:50:26;101897.66;;;18.37;46.29
53246;BME280;39569;51.090;-1.786;2023-04-16T06:52:53;101897.03;;;18.56;45.71
53246;BME280;39569;51.090;-1.786;2023-04-16T06:55:19;101898.38;;;18.73;46.05
53246;BME280;39569;51.090;-1.786;2023-04-16T06:57:46;101905.53;;;18.81;45.99
53246;BME280;39569;51.090;-1.786;2023-04-16T07:00:13;101901.00;;;18.94;45.57
53246;BME280;39569;51.090;-1.786;2023-04-16T07:02:40;101910.31;;;18.85;45.76
53246;BME280;39569;51.090;-1.786;2023-04-16T07:05:08;101906.03;;;19.04;45.59
53246;BME280;39569;51.090;-1.786;2023-04-16T07:07:35;101904.03;;;19.19;45.28
53246;BME280;39569;51.090;-1.786;2023-04-16T07:10:02;101907.81;;;19.31;45.29
53246;BME280;39569;51.090;-1.786;2023-04-16T07:12:30;101905.03;;;19.11;45.70
53246;BME280;39569;51.090;-1.786;2023-04-16T07:14:57;101909.03;;;19.22;44.95
53246;BME280;39569;51.090;-1.786;2023-04-16T07:17:24;101904.41;;;19.09;45.45
53246;BME280;39569;51.090;-1.786;2023-04-16T07:19:50;101913.72;;;19.34;45.23
53246;BME280;39569;51.090;-1.786;2023-04-16T07:22:19;101911.88;;;19.41;45.36
53246;BME280;39569;51.090;-1.786;2023-04-16T07:24:45;101907.72;;;19.52;44.92
53246;BME280;39569;51.090;-1.786;2023-04-16T07:27:12;101902.09;;;19.53;44.97
53246;BME280;39569;51.090;-1.786;2023-04-16T07:29:39;101907.34;;;19.68;44.81
53246;BME280;39569;51.090;-1.786;2023-04-16T07:32:06;101905.72;;;19.80;44.90
53246;BME280;39569;51.090;-1.786;2023-04-16T07:34:33;101908.25;;;19.88;43.97
53246;BME280;39569;51.090;-1.786;2023-04-16T07:37:00;101906.78;;;19.92;43.41
53246;BME280;39569;51.090;-1.786;2023-04-16T07:39:28;101911.59;;;19.97;43.37
53246;BME280;39569;51.090;-1.786;2023-04-16T07:41:55;101910.53;;;20.11;43.18
53246;BME280;39569;51.090;-1.786;2023-04-16T07:44:22;101920.16;;;20.13;43.18
53246;BME280;39569;51.090;-1.786;2023-04-16T07:46:48;101918.09;;;20.22;43.48
53246;BME280;39569;51.090;-1.786;2023-04-16T07:49:15;101916.97;;;19.64;44.21
53246;BME280;39569;51.090;-1.786;2023-04-16T07:51:42;101918.44;;;19.80;44.00
53246;BME280;39569;51.090;-1.786;2023-04-16T07:54:09;101915.38;;;20.15;43.29
53246;BME280;39569;51.090;-1.786;2023-04-16T07:56:37;101923.75;;;20.40;42.75
53246;BME280;39569;51.090;-1.786;2023-04-16T07:59:04;101926.41;;;20.07;43.47
53246;BME280;39569;51.090;-1.786;2023-04-16T08:01:31;101929.13;;;20.07;43.45
53246;BME280;39569;51.090;-1.786;2023-04-16T08:03:58;101924.56;;;20.27;42.69
53246;BME280;39569;51.090;-1.786;2023-04-16T08:06:25;101928.78;;;19.43;44.26
53246;BME280;39569;51.090;-1.786;2023-04-16T08:08:52;101930.41;;;20.18;43.29
53246;BME280;39569;51.090;-1.786;2023-04-16T08:11:18;101926.41;;;20.01;43.51
53246;BME280;39569;51.090;-1.786;2023-04-16T08:13:47;101931.06;;;20.26;43.51
53246;BME280;39569;51.090;-1.786;2023-04-16T08:16:13;101937.31;;;20.40;43.01
53246;BME280;39569;51.090;-1.786;2023-04-16T08:18:40;101943.56;;;20.27;43.30
53246;BME280;39569;51.090;-1.786;2023-04-16T08:21:07;101936.63;;;19.99;44.21
53246;BME280;39569;51.090;-1.786;2023-04-16T08:23:34;101939.59;;;20.49;43.13
53246;BME280;39569;51.090;-1.786;2023-04-16T08:26:01;101938.31;;;20.72;43.06
53246;BME280;39569;51.090;-1.786;2023-04-16T08:28:28;101943.56;;;20.21;43.34
53246;BME280;39569;51.090;-1.786;2023-04-16T08:30:56;101925.34;;;21.06;42.18
53246;BME280;39569;51.090;-1.786;2023-04-16T08:33:23;101937.50;;;20.58;42.27
53246;BME280;39569;51.090;-1.786;2023-04-16T08:35:49;101920.94;;;20.99;42.65
53246;BME280;39569;51.090;-1.786;2023-04-16T08:38:16;101928.41;;;21.67;41.30
53246;BME280;39569;51.090;-1.786;2023-04-16T08:40:44;101926.00;;;20.69;42.94
53246;BME280;39569;51.090;-1.786;2023-04-16T08:43:13;101932.69;;;20.73;42.57
53246;BME280;39569;51.090;-1.786;2023-04-16T08:45:42;101932.25;;;21.02;41.91
53246;BME280;39569;51.090;-1.786;2023-04-16T08:48:11;101939.56;;;20.17;44.20
53246;BME280;39569;51.090;-1.786;2023-04-16T08:50:39;101928.47;;;21.03;42.39
53246;BME280;39569;51.090;-1.786;2023-04-16T08:53:09;101928.34;;;21.74;41.43
53246;BME280;39569;51.090;-1.786;2023-04-16T08:55:38;101930.75;;;22.26;39.37
53246;BME280;39569;51.090;-1.786;2023-04-16T08:58:10;101929.56;;;22.40;40.25
53246;BME280;39569;51.090;-1.786;2023-04-16T09:00:39;101930.72;;;22.57;40.24
53246;BME280;39569;51.090;-1.786;2023-04-16T09:03:07;101936.06;;;22.45;40.26
53246;BME280;39569;51.090;-1.786;2023-04-16T09:05:36;101935.31;;;22.81;39.81
53246;BME280;39569;51.090;-1.786;2023-04-16T09:08:04;101944.94;;;22.59;39.04
53246;BME280;39569;51.090;-1.786;2023-04-16T09:10:31;101950.88;;;22.74;38.56
53246;BME280;39569;51.090;-1.786;2023-04-16T09:12:58;101950.44;;;22.77;39.25
53246;BME280;39569;51.090;-1.786;2023-04-16T09:15:25;101956.09;;;22.76;39.12
53246;BME280;39569;51.090;-1.786;2023-04-16T09:17:51;101951.59;;;23.06;39.14
53246;BME280;39569;51.090;-1.786;2023-04-16T09:20:19;101951.84;;;23.04;38.35
53246;BME280;39569;51.090;-1.786;2023-04-16T09:22:47;101954.84;;;23.14;38.70
53246;BME280;39569;51.090;-1.786;2023-04-16T09:25:14;101960.03;;;23.40;38.71
53246;BME280;39569;51.090;-1.786;2023-04-16T09:27:41;101966.13;;;22.26;40.18
53246;BME280;39569;51.090;-1.786;2023-04-16T09:30:19;101969.81;;;22.69;39.24
53246;BME280;39569;51.090;-1.786;2023-04-16T09:32:49;101976.69;;;22.72;39.21
53246;BME280;39569;51.090;-1.786;2023-04-16T09:35:17;101973.53;;;22.75;39.14
53246;BME280;39569;51.090;-1.786;2023-04-16T09:37:55;101966.38;;;22.98;39.73
53246;BME280;39569;51.090;-1.786;2023-04-16T09:40:26;101977.38;;;22.67;40.49
53246;BME280;39569;51.090;-1.786;2023-04-16T09:42:56;101963.06;;;22.72;40.60
53246;BME280;39569;51.090;-1.786;2023-04-16T09:45:23;101967.97;;;22.63;41.10
53246;BME280;39569;51.090;-1.786;2023-04-16T09:47:49;101974.19;;;22.70;41.66
53246;BME280;39569;51.090;-1.786;2023-04-16T09:50:17;101964.66;;;22.79;41.87
53246;BME280;39569;51.090;-1.786;2023-04-16T09:52:46;101975.13;;;22.58;41.02
53246;BME280;39569;51.090;-1.786;2023-04-16T09:55:15;101973.91;;;22.78;41.86
53246;BME280;39569;51.090;-1.786;2023-04-16T09:57:43;101977.38;;;22.36;42.60
53246;BME280;39569;51.090;-1.786;2023-04-16T10:00:12;101972.81;;;22.30;42.18
53246;BME280;39569;51.090;-1.786;2023-04-16T10:02:39;101983.72;;;22.30;42.66
53246;BME280;39569;51.090;-1.786;2023-04-16T10:05:07;101980.81;;;22.56;41.80
53246;BME280;39569;51.090;-1.786;2023-04-16T10:07:35;101985.69;;;22.72;42.07
53246;BME280;39569;51.090;-1.786;2023-04-16T10:10:03;101981.81;;;22.86;41.85
53246;BME280;39569;51.090;-1.786;2023-04-16T10:12:31;101989.81;;;22.57;41.29
53246;BME280;39569;51.090;-1.786;2023-04-16T10:14:58;101986.06;;;23.18;41.03
53246;BME280;39569;51.090;-1.786;2023-04-16T10:17:25;101999.09;;;22.74;42.21
53246;BME280;39569;51.090;-1.786;2023-04-16T10:19:54;101989.63;;;23.19;41.09
53246;BME280;39569;51.090;-1.786;2023-04-16T10:22:21;101993.63;;;22.74;41.91
53246;BME280;39569;51.090;-1.786;2023-04-16T10:24:49;101988.56;;;22.77;41.24
53246;BME280;39569;51.090;-1.786;2023-04-16T10:27:17;101993.84;;;22.72;41.79
53246;BME280;39569;51.090;-1.786;2023-04-16T10:29:47;101990.88;;;22.56;42.28
53246;BME280;39569;51.090;-1.786;2023-04-16T10:32:15;101992.59;;;22.75;41.94
53246;BME280;39569;51.090;-1.786;2023-04-16T10:34:43;101984.69;;;23.09;41.87
53246;BME280;39569;51.090;-1.786;2023-04-16T10:37:10;101980.81;;;23.42;40.38
53246;BME280;39569;51.090;-1.786;2023-04-16T10:39:37;101984.88;;;23.51;40.25
53246;BME280;39569;51.090;-1.786;2023-04-16T10:42:07;101989.66;;;24.03;39.12
53246;BME280;39569;51.090;-1.786;2023-04-16T10:44:34;101991.94;;;24.06;38.33
53246;BME280;39569;51.090;-1.786;2023-04-16T10:47:09;101989.19;;;24.06;39.33
53246;BME280;39569;51.090;-1.786;2023-04-16T10:49:37;101985.03;;;23.56;39.96
53246;BME280;39569;51.090;-1.786;2023-04-16T10:52:09;101989.47;;;23.68;39.03
53246;BME280;39569;51.090;-1.786;2023-04-16T10:54:37;101987.88;;;23.61;38.62
53246;BME280;39569;51.090;-1.786;2023-04-16T10:57:06;101990.00;;;23.77;38.12
53246;BME280;39569;51.090;-1.786;2023-04-16T10:59:34;101987.31;;;23.88;37.76
53246;BME280;39569;51.090;-1.786;2023-04-16T11:02:06;101981.94;;;23.82;38.22
53246;BME280;39569;51.090;-1.786;2023-04-16T11:04:34;101982.59;;;23.66;39.10
53246;BME280;39569;51.090;-1.786;2023-04-16T11:07:03;101981.56;;;24.38;38.58
53246;BME280;39569;51.090;-1.786;2023-04-16T11:09:52;101988.22;;;24.53;38.08
53246;BME280;39569;51.090;-1.786;2023-04-16T11:12:22;101986.63;;;24.22;37.67
53246;BME280;39569;51.090;-1.786;2023-04-16T11:14:53;101982.97;;;24.28;37.48
53246;BME280;39569;51.090;-1.786;2023-04-16T11:17:21;101989.25;;;24.29;37.30
53246;BME280;39569;51.090;-1.786;2023-04-16T11:19:48;101991.94;;;24.47;37.07
53246;BME280;39569;51.090;-1.786;2023-04-16T11:22:16;101980.81;;;25.06;34.28
53246;BME280;39569;51.090;-1.786;2023-04-16T11:24:44;101976.34;;;25.52;33.58
53246;BME280;39569;51.090;-1.786;2023-04-16T11:27:12;101983.91;;;24.98;34.78
53246;BME280;39569;51.090;-1.786;2023-04-16T11:29:39;101991.03;;;24.88;33.03
53246;BME280;39569;51.090;-1.786;2023-04-16T11:32:06;101991.69;;;24.07;34.91
53246;BME280;39569;51.090;-1.786;2023-04-16T11:34:42;101977.34;;;24.23;34.62
53246;BME280;39569;51.090;-1.786;2023-04-16T11:37:09;101986.50;;;25.16;34.00
53246;BME280;39569;51.090;-1.786;2023-04-16T11:39:47;101981.88;;;25.96;32.17
53246;BME280;39569;51.090;-1.786;2023-04-16T11:42:18;101984.91;;;23.80;33.88
53246;BME280;39569;51.090;-1.786;2023-04-16T11:44:45;101989.13;;;24.77;32.79
53246;BME280;39569;51.090;-1.786;2023-04-16T11:47:12;101981.28;;;24.27;33.34
53246;BME280;39569;51.090;-1.786;2023-04-16T11:49:40;101987.88;;;22.64;35.18
53246;BME280;39569;51.090;-1.786;2023-04-16T11:52:07;101989.91;;;22.68;34.92
53246;BME280;39569;51.090;-1.786;2023-04-16T11:54:34;101986.00;;;24.62;34.28
53246;BME280;39569;51.090;-1.786;2023-04-16T11:57:01;101985.72;;;23.81;34.51
53246;BME280;39569;51.090;-1.786;2023-04-16T11:59:29;101981.69;;;24.01;34.45
53246;BME280;39569;51.090;-1.786;2023-04-16T12:01:56;101983.03;;;23.63;34.44
53246;BME280;39569;51.090;-1.786;2023-04-16T12:04:24;101974.72;;;25.39;32.92
53246;BME280;39569;51.090;-1.786;2023-04-16T12:07:05;101979.69;;;25.82;32.16
53246;BME280;39569;51.090;-1.786;2023-04-16T12:09:32;101983.50;;;24.49;31.78
53246;BME280;39569;51.090;-1.786;2023-04-16T12:12:00;101993.41;;;25.07;31.08
53246;BME280;39569;51.090;-1.786;2023-04-16T12:14:27;101981.66;;;24.31;30.71
53246;BME280;39569;51.090;-1.786;2023-04-16T12:16:54;101979.69;;;24.38;30.68
53246;BME280;39569;51.090;-1.786;2023-04-16T12:19:21;101978.44;;;23.93;31.34
53246;BME280;39569;51.090;-1.786;2023-04-16T12:21:49;101981.78;;;24.24;31.60
53246;BME280;39569;51.090;-1.786;2023-04-16T12:24:18;101978.34;;;24.41;32.37
53246;BME280;39569;51.090;-1.786;2023-04-16T12:26:51;101987.00;;;23.96;30.79
53246;BME280;39569;51.090;-1.786;2023-04-16T12:29:23;101986.13;;;23.66;30.15
53246;BME280;39569;51.090;-1.786;2023-04-16T12:31:51;101988.19;;;23.71;31.17
53246;BME280;39569;51.090;-1.786;2023-04-16T12:34:19;101985.84;;;24.57;29.52
53246;BME280;39569;51.090;-1.786;2023-04-16T12:36:48;101978.91;;;24.19;30.93
53246;BME280;39569;51.090;-1.786;2023-04-16T12:39:17;101982.13;;;23.69;30.37
53246;BME280;39569;51.090;-1.786;2023-04-16T12:41:44;101986.81;;;22.33;33.35